Accueil
METAR-TAF:

METAR-TAF

Aéroports :

Kunming, Chine

Aéroport international de Kunming Changshui

latitude: 25-01N, longitude: 102-41E, altitude: 1892 m

Observation

Le bulletin a été fait il y a 13 minutes, à 03:00 UTC
Vent 14 kt de sud-ouest
Température 22°C
Humidité 38%
Pression 1021 hPa
Visibilité 10 km ou plus
pas de nuages en-dessous de 1500 mètres et pas de cumulonimbus.

METAR: ZPPP 250300Z 23007MPS CAVOK 22/07 Q1021 NOSIG

Heure: 11:13 (03:13 UTC)

Prévision

Le bulletin a été fait il y a 8 heures et 8 minutes, à 19:05 UTC
Prévision valable du 25 à 00 UTC au 25 à 24 UTC
Vent 8 kt de nord-est
Visibilité 10 km ou plus
Nuages épars à une hauteur de 2600 ft
Evoluant progressivement
du 25 à 02 UTC au 25 à 03 UTC
Vent 12 kt de sud-ouest

TAF: ZPPP 241905Z 2500/2524 04004MPS 9999 SCT026 TX25/2508Z TN12/2500Z BECMG 2502/2503 22006MPS

Observations et prévisions météorologiques de plus de 4000 aéroports (messages METAR et TAF).

Les stations disponibles sont représentées par des disques jaunes et rouges sur la carte.

Passer la souris dessus pour voir le nom de la station.

Cliquer dessus pour voir les observations et prévisions météorologiques.

Pour changer de carte: cliquez sur les boutons verts avec une croix noire pour zoomer, sur le bouton vert avec un tiret pour effectuer un zoom arrière, ou sur les flèches vertes pour les cartes adjacentes.


METAR-TAF: